sensor_id;sensor_type;location;lat;lon;timestamp;temperature;humidity
38902;DHT22;24661;53.566;9.910;2022-10-17T00:01:40;12.40;99.90
38902;DHT22;24661;53.566;9.910;2022-10-17T00:04:05;12.40;99.90
38902;DHT22;24661;53.566;9.910;2022-10-17T00:06:31;12.40;99.90
38902;DHT22;24661;53.566;9.910;2022-10-17T00:08:56;12.40;99.90
38902;DHT22;24661;53.566;9.910;2022-10-17T00:11:22;12.40;99.90
38902;DHT22;24661;53.566;9.910;2022-10-17T00:13:50;12.40;99.90
38902;DHT22;24661;53.566;9.910;2022-10-17T00:16:30;12.40;99.90
38902;DHT22;24661;53.566;9.910;2022-10-17T00:18:58;12.40;99.90
38902;DHT22;24661;53.566;9.910;2022-10-17T00:21:24;12.40;99.90
38902;DHT22;24661;53.566;9.910;2022-10-17T00:23:50;12.40;99.90
38902;DHT22;24661;53.566;9.910;2022-10-17T00:26:16;12.40;99.90
38902;DHT22;24661;53.566;9.910;2022-10-17T00:28:48;12.40;99.90
38902;DHT22;24661;53.566;9.910;2022-10-17T00:31:17;12.50;99.90
38902;DHT22;24661;53.566;9.910;2022-10-17T00:33:43;12.50;99.90
38902;DHT22;24661;53.566;9.910;2022-10-17T00:36:18;12.50;99.90
38902;DHT22;24661;53.566;9.910;2022-10-17T00:38:46;12.60;99.90
38902;DHT22;24661;53.566;9.910;2022-10-17T00:41:14;12.60;99.90
38902;DHT22;24661;53.566;9.910;2022-10-17T00:46:42;12.70;99.90
38902;DHT22;24661;53.566;9.910;2022-10-17T00:49:10;12.70;99.90
38902;DHT22;24661;53.566;9.910;2022-10-17T00:51:44;12.70;99.90
38902;DHT22;24661;53.566;9.910;2022-10-17T00:54:12;12.60;99.90
38902;DHT22;24661;53.566;9.910;2022-10-17T00:56:38;12.60;99.90
38902;DHT22;24661;53.566;9.910;2022-10-17T00:59:06;12.60;99.90
38902;DHT22;24661;53.566;9.910;2022-10-17T01:01:33;12.70;99.90
38902;DHT22;24661;53.566;9.910;2022-10-17T01:03:59;12.60;99.90
38902;DHT22;24661;53.566;9.910;2022-10-17T01:06:25;12.60;99.90
38902;DHT22;24661;53.566;9.910;2022-10-17T01:08:50;12.60;99.90
38902;DHT22;24661;53.566;9.910;2022-10-17T01:11:44;12.60;99.90
38902;DHT22;24661;53.566;9.910;2022-10-17T01:14:36;12.60;99.90
38902;DHT22;24661;53.566;9.910;2022-10-17T01:22:28;12.60;99.90
38902;DHT22;24661;53.566;9.910;2022-10-17T01:28:11;12.70;99.90
38902;DHT22;24661;53.566;9.910;2022-10-17T01:38:22;12.70;99.90
38902;DHT22;24661;53.566;9.910;2022-10-17T01:40:50;12.80;99.90
38902;DHT22;24661;53.566;9.910;2022-10-17T01:43:21;12.80;99.90
38902;DHT22;24661;53.566;9.910;2022-10-17T01:45:56;12.80;99.90
38902;DHT22;24661;53.566;9.910;2022-10-17T01:48:30;12.80;99.90
38902;DHT22;24661;53.566;9.910;2022-10-17T01:51:15;12.90;99.90
38902;DHT22;24661;53.566;9.910;2022-10-17T01:54:01;12.90;99.90
38902;DHT22;24661;53.566;9.910;2022-10-17T01:56:30;12.90;99.90
38902;DHT22;24661;53.566;9.910;2022-10-17T01:59:02;12.90;99.90
38902;DHT22;24661;53.566;9.910;2022-10-17T02:01:29;12.90;99.90
38902;DHT22;24661;53.566;9.910;2022-10-17T02:03:56;13.00;99.90
38902;DHT22;24661;53.566;9.910;2022-10-17T02:06:22;12.90;99.90
38902;DHT22;24661;53.566;9.910;2022-10-17T02:08:49;12.90;99.90
38902;DHT22;24661;53.566;9.910;2022-10-17T02:11:20;13.00;99.90
38902;DHT22;24661;53.566;9.910;2022-10-17T02:14:22;13.00;99.90
38902;DHT22;24661;53.566;9.910;2022-10-17T02:19:58;13.00;99.90
38902;DHT22;24661;53.566;9.910;2022-10-17T02:22:44;13.10;99.90
38902;DHT22;24661;53.566;9.910;2022-10-17T02:25:33;13.10;99.90
38902;DHT22;24661;53.566;9.910;2022-10-17T02:33:16;13.10;99.90
38902;DHT22;24661;53.566;9.910;2022-10-17T02:35:47;13.10;99.90
38902;DHT22;24661;53.566;9.910;2022-10-17T02:38:15;13.10;99.90
38902;DHT22;24661;53.566;9.910;2022-10-17T02:40:44;13.10;99.90
38902;DHT22;24661;53.566;9.910;2022-10-17T02:43:11;13.10;99.90
38902;DHT22;24661;53.566;9.910;2022-10-17T02:45:37;13.10;99.90
38902;DHT22;24661;53.566;9.910;2022-10-17T02:48:21;13.20;99.90
38902;DHT22;24661;53.566;9.910;2022-10-17T02:51:11;13.20;99.90
38902;DHT22;24661;53.566;9.910;2022-10-17T02:56:17;13.30;99.90
38902;DHT22;24661;53.566;9.910;2022-10-17T02:58:46;13.30;99.90
38902;DHT22;24661;53.566;9.910;2022-10-17T03:01:13;13.30;99.90
38902;DHT22;24661;53.566;9.910;2022-10-17T03:03:39;13.30;99.90
38902;DHT22;24661;53.566;9.910;2022-10-17T03:06:04;13.40;99.90
38902;DHT22;24661;53.566;9.910;2022-10-17T03:08:30;13.40;99.90
38902;DHT22;24661;53.566;9.910;2022-10-17T03:10:55;13.40;99.90
38902;DHT22;24661;53.566;9.910;2022-10-17T03:13:21;13.50;99.90
38902;DHT22;24661;53.566;9.910;2022-10-17T03:15:46;13.50;99.90
38902;DHT22;24661;53.566;9.910;2022-10-17T03:18:12;13.50;99.90
38902;DHT22;24661;53.566;9.910;2022-10-17T03:20:38;13.60;99.90
38902;DHT22;24661;53.566;9.910;2022-10-17T03:23:03;13.60;99.90
38902;DHT22;24661;53.566;9.910;2022-10-17T03:25:29;13.60;99.90
38902;DHT22;24661;53.566;9.910;2022-10-17T03:27:57;13.60;99.90
38902;DHT22;24661;53.566;9.910;2022-10-17T03:30:24;13.70;99.90
38902;DHT22;24661;53.566;9.910;2022-10-17T03:32:50;13.60;99.90
38902;DHT22;24661;53.566;9.910;2022-10-17T03:35:15;13.60;99.90
38902;DHT22;24661;53.566;9.910;2022-10-17T03:37:41;13.60;99.90
38902;DHT22;24661;53.566;9.910;2022-10-17T03:40:08;13.60;99.90
38902;DHT22;24661;53.566;9.910;2022-10-17T03:42:36;13.50;99.90
38902;DHT22;24661;53.566;9.910;2022-10-17T03:45:02;13.50;99.90
38902;DHT22;24661;53.566;9.910;2022-10-17T03:47:28;13.50;99.90
38902;DHT22;24661;53.566;9.910;2022-10-17T03:49:53;14.60;99.90
38902;DHT22;24661;53.566;9.910;2022-10-17T03:52:19;13.50;99.90
38902;DHT22;24661;53.566;9.910;2022-10-17T03:54:45;13.50;99.90
38902;DHT22;24661;53.566;9.910;2022-10-17T03:57:10;13.50;99.90
38902;DHT22;24661;53.566;9.910;2022-10-17T03:59:36;13.40;99.90
38902;DHT22;24661;53.566;9.910;2022-10-17T04:02:01;13.40;99.90
38902;DHT22;24661;53.566;9.910;2022-10-17T04:04:27;13.40;99.90
38902;DHT22;24661;53.566;9.910;2022-10-17T04:06:52;13.40;99.90
38902;DHT22;24661;53.566;9.910;2022-10-17T04:09:18;13.50;99.90
38902;DHT22;24661;53.566;9.910;2022-10-17T04:11:44;13.50;99.90
38902;DHT22;24661;53.566;9.910;2022-10-17T04:14:09;13.50;99.90
38902;DHT22;24661;53.566;9.910;2022-10-17T04:16:35;13.50;99.90
38902;DHT22;24661;53.566;9.910;2022-10-17T04:19:01;13.50;99.90
38902;DHT22;24661;53.566;9.910;2022-10-17T04:21:28;13.50;99.90
38902;DHT22;24661;53.566;9.910;2022-10-17T04:23:58;13.50;99.90
38902;DHT22;24661;53.566;9.910;2022-10-17T04:26:24;13.50;99.90
38902;DHT22;24661;53.566;9.910;2022-10-17T04:28:50;13.40;99.90
38902;DHT22;24661;53.566;9.910;2022-10-17T04:31:16;13.40;99.90
38902;DHT22;24661;53.566;9.910;2022-10-17T04:33:45;13.40;99.90
38902;DHT22;24661;53.566;9.910;2022-10-17T04:36:12;13.40;99.90
38902;DHT22;24661;53.566;9.910;2022-10-17T04:38:39;13.40;99.90
38902;DHT22;24661;53.566;9.910;2022-10-17T04:41:06;13.40;99.90
38902;DHT22;24661;53.566;9.910;2022-10-17T04:43:34;13.30;99.90
38902;DHT22;24661;53.566;9.910;2022-10-17T04:46:02;13.30;99.90
38902;DHT22;24661;53.566;9.910;2022-10-17T04:48:28;13.30;99.90
38902;DHT22;24661;53.566;9.910;2022-10-17T04:51:02;13.30;99.90
38902;DHT22;24661;53.566;9.910;2022-10-17T04:53:30;13.30;99.90
38902;DHT22;24661;53.566;9.910;2022-10-17T04:55:56;13.30;99.90
38902;DHT22;24661;53.566;9.910;2022-10-17T04:58:23;13.20;99.90
38902;DHT22;24661;53.566;9.910;2022-10-17T05:00:49;13.30;99.90
38902;DHT22;24661;53.566;9.910;2022-10-17T05:03:15;13.20;99.90
38902;DHT22;24661;53.566;9.910;2022-10-17T05:05:41;13.20;99.90
38902;DHT22;24661;53.566;9.910;2022-10-17T05:08:08;13.20;99.90
38902;DHT22;24661;53.566;9.910;2022-10-17T05:10:42;13.10;99.90
38902;DHT22;24661;53.566;9.910;2022-10-17T05:13:09;13.10;99.90
38902;DHT22;24661;53.566;9.910;2022-10-17T05:15:35;13.10;99.90
38902;DHT22;24661;53.566;9.910;2022-10-17T05:18:01;13.10;99.90
38902;DHT22;24661;53.566;9.910;2022-10-17T05:20:27;13.00;99.90
38902;DHT22;24661;53.566;9.910;2022-10-17T05:22:53;13.00;99.90
38902;DHT22;24661;53.566;9.910;2022-10-17T05:25:18;13.00;99.90
38902;DHT22;24661;53.566;9.910;2022-10-17T05:27:44;13.00;99.90
38902;DHT22;24661;53.566;9.910;2022-10-17T05:30:10;13.00;99.90
38902;DHT22;24661;53.566;9.910;2022-10-17T05:32:36;13.00;99.90
38902;DHT22;24661;53.566;9.910;2022-10-17T05:35:02;12.90;99.90
38902;DHT22;24661;53.566;9.910;2022-10-17T05:37:29;12.90;99.90
38902;DHT22;24661;53.566;9.910;2022-10-17T05:39:55;12.90;99.90
38902;DHT22;24661;53.566;9.910;2022-10-17T05:42:21;12.90;99.90
38902;DHT22;24661;53.566;9.910;2022-10-17T05:44:47;12.80;99.90
38902;DHT22;24661;53.566;9.910;2022-10-17T05:47:12;12.80;99.90
38902;DHT22;24661;53.566;9.910;2022-10-17T05:49:38;12.80;99.90
38902;DHT22;24661;53.566;9.910;2022-10-17T05:52:04;12.80;99.90
38902;DHT22;24661;53.566;9.910;2022-10-17T05:54:29;12.70;99.90
38902;DHT22;24661;53.566;9.910;2022-10-17T05:56:55;12.70;99.90
38902;DHT22;24661;53.566;9.910;2022-10-17T05:59:23;12.70;99.90
38902;DHT22;24661;53.566;9.910;2022-10-17T06:01:49;12.70;99.90
38902;DHT22;24661;53.566;9.910;2022-10-17T06:04:14;12.70;99.90
38902;DHT22;24661;53.566;9.910;2022-10-17T06:06:40;12.70;99.90
38902;DHT22;24661;53.566;9.910;2022-10-17T06:09:06;12.70;99.90
38902;DHT22;24661;53.566;9.910;2022-10-17T06:11:33;12.70;99.90
38902;DHT22;24661;53.566;9.910;2022-10-17T06:13:58;12.60;99.90
38902;DHT22;24661;53.566;9.910;2022-10-17T06:16:24;12.60;99.90
38902;DHT22;24661;53.566;9.910;2022-10-17T06:18:50;12.60;99.90
38902;DHT22;24661;53.566;9.910;2022-10-17T06:21:18;12.50;99.90
38902;DHT22;24661;53.566;9.910;2022-10-17T06:23:45;12.60;99.90
38902;DHT22;24661;53.566;9.910;2022-10-17T06:26:10;12.70;99.90
38902;DHT22;24661;53.566;9.910;2022-10-17T06:28:36;12.50;99.90
38902;DHT22;24661;53.566;9.910;2022-10-17T06:31:06;12.50;99.90
38902;DHT22;24661;53.566;9.910;2022-10-17T06:33:32;12.50;99.90
38902;DHT22;24661;53.566;9.910;2022-10-17T06:35:58;12.50;99.90
38902;DHT22;24661;53.566;9.910;2022-10-17T06:38:24;12.50;99.90
38902;DHT22;24661;53.566;9.910;2022-10-17T06:40:50;12.50;99.90
38902;DHT22;24661;53.566;9.910;2022-10-17T06:43:16;12.50;99.90
38902;DHT22;24661;53.566;9.910;2022-10-17T06:45:41;11.20;99.90
38902;DHT22;24661;53.566;9.910;2022-10-17T06:48:07;12.50;99.90
38902;DHT22;24661;53.566;9.910;2022-10-17T06:50:33;12.50;99.90
38902;DHT22;24661;53.566;9.910;2022-10-17T06:52:59;12.50;99.90
38902;DHT22;24661;53.566;9.910;2022-10-17T06:55:25;12.50;99.90
38902;DHT22;24661;53.566;9.910;2022-10-17T06:57:54;12.60;99.90
38902;DHT22;24661;53.566;9.910;2022-10-17T07:00:19;12.60;99.90
38902;DHT22;24661;53.566;9.910;2022-10-17T07:02:45;12.60;99.90
38902;DHT22;24661;53.566;9.910;2022-10-17T07:05:10;12.70;99.90
38902;DHT22;24661;53.566;9.910;2022-10-17T07:07:36;12.70;99.90
38902;DHT22;24661;53.566;9.910;2022-10-17T07:10:02;12.80;99.90
38902;DHT22;24661;53.566;9.910;2022-10-17T07:12:28;12.80;99.90
38902;DHT22;24661;53.566;9.910;2022-10-17T07:14:54;12.80;99.90
38902;DHT22;24661;53.566;9.910;2022-10-17T07:17:20;12.90;99.90
38902;DHT22;24661;53.566;9.910;2022-10-17T07:19:45;12.90;99.90
38902;DHT22;24661;53.566;9.910;2022-10-17T07:22:11;13.00;99.90
38902;DHT22;24661;53.566;9.910;2022-10-17T07:24:37;13.10;99.90
38902;DHT22;24661;53.566;9.910;2022-10-17T07:27:03;13.20;99.90
38902;DHT22;24661;53.566;9.910;2022-10-17T07:29:29;13.30;99.90
38902;DHT22;24661;53.566;9.910;2022-10-17T07:31:54;13.40;99.90
38902;DHT22;24661;53.566;9.910;2022-10-17T07:34:21;13.50;99.90
38902;DHT22;24661;53.566;9.910;2022-10-17T07:36:46;13.60;99.90
38902;DHT22;24661;53.566;9.910;2022-10-17T07:39:12;13.70;99.90
38902;DHT22;24661;53.566;9.910;2022-10-17T07:41:39;13.60;99.90
38902;DHT22;24661;53.566;9.910;2022-10-17T07:44:04;13.80;99.90
38902;DHT22;24661;53.566;9.910;2022-10-17T07:46:30;13.90;99.90
38902;DHT22;24661;53.566;9.910;2022-10-17T07:48:55;13.90;99.90
38902;DHT22;24661;53.566;9.910;2022-10-17T07:51:21;13.90;99.90
38902;DHT22;24661;53.566;9.910;2022-10-17T07:53:47;14.00;99.90
38902;DHT22;24661;53.566;9.910;2022-10-17T07:56:12;14.00;99.90
38902;DHT22;24661;53.566;9.910;2022-10-17T07:58:38;14.10;99.90
38902;DHT22;24661;53.566;9.910;2022-10-17T08:01:06;14.30;99.90
38902;DHT22;24661;53.566;9.910;2022-10-17T08:03:33;14.50;99.90
38902;DHT22;24661;53.566;9.910;2022-10-17T08:06:00;14.70;99.90
38902;DHT22;24661;53.566;9.910;2022-10-17T08:08:26;14.90;99.90
38902;DHT22;24661;53.566;9.910;2022-10-17T08:10:53;14.00;99.90
38902;DHT22;24661;53.566;9.910;2022-10-17T08:13:20;15.20;99.90
38902;DHT22;24661;53.566;9.910;2022-10-17T08:15:46;15.30;99.90
38902;DHT22;24661;53.566;9.910;2022-10-17T08:18:13;15.40;99.90
38902;DHT22;24661;53.566;9.910;2022-10-17T08:20:39;15.40;99.90
38902;DHT22;24661;53.566;9.910;2022-10-17T08:23:05;15.50;99.90
38902;DHT22;24661;53.566;9.910;2022-10-17T08:25:32;15.50;99.90
38902;DHT22;24661;53.566;9.910;2022-10-17T08:27:58;15.50;99.90
38902;DHT22;24661;53.566;9.910;2022-10-17T08:30:24;15.50;99.90
38902;DHT22;24661;53.566;9.910;2022-10-17T08:32:50;15.50;99.90
38902;DHT22;24661;53.566;9.910;2022-10-17T08:35:15;15.60;99.90
38902;DHT22;24661;53.566;9.910;2022-10-17T08:37:41;15.70;99.90
38902;DHT22;24661;53.566;9.910;2022-10-17T08:40:25;15.80;99.90
38902;DHT22;24661;53.566;9.910;2022-10-17T08:45:39;15.90;99.90
38902;DHT22;24661;53.566;9.910;2022-10-17T08:48:12;15.90;99.90
38902;DHT22;24661;53.566;9.910;2022-10-17T08:55:55;16.00;99.90
38902;DHT22;24661;53.566;9.910;2022-10-17T08:58:23;16.10;99.90
38902;DHT22;24661;53.566;9.910;2022-10-17T09:01:12;16.20;99.90
38902;DHT22;24661;53.566;9.910;2022-10-17T09:04:00;16.30;99.90
38902;DHT22;24661;53.566;9.910;2022-10-17T09:06:35;16.50;99.90
38902;DHT22;24661;53.566;9.910;2022-10-17T09:11:55;16.90;99.90
38902;DHT22;24661;53.566;9.910;2022-10-17T09:14:36;17.00;99.90
38902;DHT22;24661;53.566;9.910;2022-10-17T09:19:57;17.30;99.90
38902;DHT22;24661;53.566;9.910;2022-10-17T09:22:25;17.40;99.90
38902;DHT22;24661;53.566;9.910;2022-10-17T09:24:58;17.50;99.90
38902;DHT22;24661;53.566;9.910;2022-10-17T09:27:39;17.60;99.90
38902;DHT22;24661;53.566;9.910;2022-10-17T09:32:54;17.70;99.90
38902;DHT22;24661;53.566;9.910;2022-10-17T09:35:20;17.70;99.90
38902;DHT22;24661;53.566;9.910;2022-10-17T09:37:47;17.70;99.90
38902;DHT22;24661;53.566;9.910;2022-10-17T09:40:31;17.70;99.90
38902;DHT22;24661;53.566;9.910;2022-10-17T09:42:58;17.70;99.90
38902;DHT22;24661;53.566;9.910;2022-10-17T09:45:26;17.70;99.90
38902;DHT22;24661;53.566;9.910;2022-10-17T09:48:17;17.70;99.90
38902;DHT22;24661;53.566;9.910;2022-10-17T09:50:45;17.80;99.90
38902;DHT22;24661;53.566;9.910;2022-10-17T09:53:15;17.90;99.90
38902;DHT22;24661;53.566;9.910;2022-10-17T09:55:46;18.00;99.90
38902;DHT22;24661;53.566;9.910;2022-10-17T09:58:14;18.10;99.90
38902;DHT22;24661;53.566;9.910;2022-10-17T10:00:44;18.20;99.90
38902;DHT22;24661;53.566;9.910;2022-10-17T10:03:21;18.30;99.90
38902;DHT22;24661;53.566;9.910;2022-10-17T10:06:25;18.30;99.90
38902;DHT22;24661;53.566;9.910;2022-10-17T10:08:56;18.40;99.90
38902;DHT22;24661;53.566;9.910;2022-10-17T10:11:50;18.50;99.90
38902;DHT22;24661;53.566;9.910;2022-10-17T10:14:22;18.60;99.90
38902;DHT22;24661;53.566;9.910;2022-10-17T10:16:50;18.70;99.90
38902;DHT22;24661;53.566;9.910;2022-10-17T10:19:36;18.80;99.90
38902;DHT22;24661;53.566;9.910;2022-10-17T10:22:14;18.90;99.90
38902;DHT22;24661;53.566;9.910;2022-10-17T10:24:40;19.00;99.90
38902;DHT22;24661;53.566;9.910;2022-10-17T10:27:15;19.00;99.90
38902;DHT22;24661;53.566;9.910;2022-10-17T10:29:49;19.00;99.90
38902;DHT22;24661;53.566;9.910;2022-10-17T10:37:27;19.30;99.90
38902;DHT22;24661;53.566;9.910;2022-10-17T10:39:57;19.40;99.90
38902;DHT22;24661;53.566;9.910;2022-10-17T10:42:31;19.80;99.90
38902;DHT22;24661;53.566;9.910;2022-10-17T10:45:17;19.60;99.90
38902;DHT22;24661;53.566;9.910;2022-10-17T10:47:57;19.80;99.90
38902;DHT22;24661;53.566;9.910;2022-10-17T10:50:37;19.90;99.90
38902;DHT22;24661;53.566;9.910;2022-10-17T10:55:51;20.00;99.90
38902;DHT22;24661;53.566;9.910;2022-10-17T10:58:50;20.00;99.90
38902;DHT22;24661;53.566;9.910;2022-10-17T11:01:29;20.00;99.90
38902;DHT22;24661;53.566;9.910;2022-10-17T11:06:35;20.00;99.90
38902;DHT22;24661;53.566;9.910;2022-10-17T11:11:46;20.00;99.90
38902;DHT22;24661;53.566;9.910;2022-10-17T11:14:44;20.00;99.90
38902;DHT22;24661;53.566;9.910;2022-10-17T11:17:39;20.00;99.90
38902;DHT22;24661;53.566;9.910;2022-10-17T11:20:31;19.90;99.90
38902;DHT22;24661;53.566;9.910;2022-10-17T11:23:13;19.90;99.90
38902;DHT22;24661;53.566;9.910;2022-10-17T11:25:44;19.90;99.90
38902;DHT22;24661;53.566;9.910;2022-10-17T11:28:18;20.00;99.90
38902;DHT22;24661;53.566;9.910;2022-10-17T11:30:55;20.00;99.90
38902;DHT22;24661;53.566;9.910;2022-10-17T11:33:49;20.00;99.90
38902;DHT22;24661;53.566;9.910;2022-10-17T11:36:19;20.00;99.90
38902;DHT22;24661;53.566;9.910;2022-10-17T11:38:59;20.10;99.90
38902;DHT22;24661;53.566;9.910;2022-10-17T11:41:48;20.10;99.90
38902;DHT22;24661;53.566;9.910;2022-10-17T11:44:34;20.10;99.90
38902;DHT22;24661;53.566;9.910;2022-10-17T11:47:33;20.20;99.90
38902;DHT22;24661;53.566;9.910;2022-10-17T11:50:19;20.20;99.90
38902;DHT22;24661;53.566;9.910;2022-10-17T11:53:07;20.20;99.90
38902;DHT22;24661;53.566;9.910;2022-10-17T11:55:34;20.10;99.90
38902;DHT22;24661;53.566;9.910;2022-10-17T12:01:39;20.00;99.90
38902;DHT22;24661;53.566;9.910;2022-10-17T12:07:19;19.70;99.90
38902;DHT22;24661;53.566;9.910;2022-10-17T12:12:25;19.10;99.90
38902;DHT22;24661;53.566;9.910;2022-10-17T12:14:51;18.70;99.90
38902;DHT22;24661;53.566;9.910;2022-10-17T12:17:33;18.40;99.90
38902;DHT22;24661;53.566;9.910;2022-10-17T12:25:29;17.90;99.90
38902;DHT22;24661;53.566;9.910;2022-10-17T12:28:18;17.80;99.90
38902;DHT22;24661;53.566;9.910;2022-10-17T12:31:01;17.70;99.90
38902;DHT22;24661;53.566;9.910;2022-10-17T12:55:12;17.70;99.90
38902;DHT22;24661;53.566;9.910;2022-10-17T12:58:04;17.70;99.90
38902;DHT22;24661;53.566;9.910;2022-10-17T13:03:15;17.60;99.90
38902;DHT22;24661;53.566;9.910;2022-10-17T13:05:48;17.60;99.90
38902;DHT22;24661;53.566;9.910;2022-10-17T13:08:18;17.50;99.90
38902;DHT22;24661;53.566;9.910;2022-10-17T13:10:46;17.50;99.90
38902;DHT22;24661;53.566;9.910;2022-10-17T13:15:59;17.50;99.90
38902;DHT22;24661;53.566;9.910;2022-10-17T13:18:27;17.30;99.90
38902;DHT22;24661;53.566;9.910;2022-10-17T13:20:59;17.20;99.90
38902;DHT22;24661;53.566;9.910;2022-10-17T13:23:29;17.00;99.90
38902;DHT22;24661;53.566;9.910;2022-10-17T13:28:35;16.80;99.90
38902;DHT22;24661;53.566;9.910;2022-10-17T13:31:00;16.80;99.90
38902;DHT22;24661;53.566;9.910;2022-10-17T13:33:37;16.80;99.90
38902;DHT22;24661;53.566;9.910;2022-10-17T13:36:06;16.80;99.90
38902;DHT22;24661;53.566;9.910;2022-10-17T13:38:33;16.80;99.90
38902;DHT22;24661;53.566;9.910;2022-10-17T13:41:00;16.70;99.90
38902;DHT22;24661;53.566;9.910;2022-10-17T13:43:27;16.80;99.90
38902;DHT22;24661;53.566;9.910;2022-10-17T13:45:55;16.80;99.90
38902;DHT22;24661;53.566;9.910;2022-10-17T13:48:24;16.80;99.90
38902;DHT22;24661;53.566;9.910;2022-10-17T13:50:56;16.80;99.90
38902;DHT22;24661;53.566;9.910;2022-10-17T13:53:33;16.80;99.90
38902;DHT22;24661;53.566;9.910;2022-10-17T13:56:01;16.70;99.90
38902;DHT22;24661;53.566;9.910;2022-10-17T13:58:31;16.70;99.90
38902;DHT22;24661;53.566;9.910;2022-10-17T14:00:59;16.70;99.90
38902;DHT22;24661;53.566;9.910;2022-10-17T14:03:25;16.70;99.90
38902;DHT22;24661;53.566;9.910;2022-10-17T14:06:05;16.70;99.90
38902;DHT22;24661;53.566;9.910;2022-10-17T14:08:34;16.70;99.90
38902;DHT22;24661;53.566;9.910;2022-10-17T14:11:01;16.70;99.90
38902;DHT22;24661;53.566;9.910;2022-10-17T14:13:29;16.80;99.90
38902;DHT22;24661;53.566;9.910;2022-10-17T14:16:00;16.70;99.90
38902;DHT22;24661;53.566;9.910;2022-10-17T14:18:28;16.80;99.90
38902;DHT22;24661;53.566;9.910;2022-10-17T14:20:54;16.70;99.90
38902;DHT22;24661;53.566;9.910;2022-10-17T14:23:33;16.80;99.90
38902;DHT22;24661;53.566;9.910;2022-10-17T14:26:07;18.30;99.90
38902;DHT22;24661;53.566;9.910;2022-10-17T14:28:33;15.50;99.90
38902;DHT22;24661;53.566;9.910;2022-10-17T14:33:45;16.80;99.90
38902;DHT22;24661;53.566;9.910;2022-10-17T14:36:11;16.80;99.90
38902;DHT22;24661;53.566;9.910;2022-10-17T14:38:38;16.80;99.90
38902;DHT22;24661;53.566;9.910;2022-10-17T14:41:15;16.80;99.90
38902;DHT22;24661;53.566;9.910;2022-10-17T14:43:43;16.80;99.90
38902;DHT22;24661;53.566;9.910;2022-10-17T14:46:15;16.80;99.90
38902;DHT22;24661;53.566;9.910;2022-10-17T14:48:41;16.80;99.90
38902;DHT22;24661;53.566;9.910;2022-10-17T14:51:13;16.70;99.90
38902;DHT22;24661;53.566;9.910;2022-10-17T14:53:40;16.70;99.90
38902;DHT22;24661;53.566;9.910;2022-10-17T14:56:39;16.80;99.90
38902;DHT22;24661;53.566;9.910;2022-10-17T14:59:06;16.80;99.90
38902;DHT22;24661;53.566;9.910;2022-10-17T15:01:33;16.70;99.90
38902;DHT22;24661;53.566;9.910;2022-10-17T15:03:58;16.80;99.90
38902;DHT22;24661;53.566;9.910;2022-10-17T15:06:42;16.70;99.90
38902;DHT22;24661;53.566;9.910;2022-10-17T15:09:09;16.70;99.90
38902;DHT22;24661;53.566;9.910;2022-10-17T15:11:36;16.80;99.90
38902;DHT22;24661;53.566;9.910;2022-10-17T15:14:01;16.70;99.90
38902;DHT22;24661;53.566;9.910;2022-10-17T15:16:32;16.80;99.90
38902;DHT22;24661;53.566;9.910;2022-10-17T15:18:57;16.80;99.90
38902;DHT22;24661;53.566;9.910;2022-10-17T15:21:24;16.80;99.90
38902;DHT22;24661;53.566;9.910;2022-10-17T15:23:50;16.70;99.90
38902;DHT22;24661;53.566;9.910;2022-10-17T15:26:23;16.70;99.90
38902;DHT22;24661;53.566;9.910;2022-10-17T15:28:50;16.80;99.90
38902;DHT22;24661;53.566;9.910;2022-10-17T15:31:18;16.70;99.90
38902;DHT22;24661;53.566;9.910;2022-10-17T15:33:44;16.70;99.90
38902;DHT22;24661;53.566;9.910;2022-10-17T15:36:29;16.60;99.90
38902;DHT22;24661;53.566;9.910;2022-10-17T15:38:58;16.70;99.90
38902;DHT22;24661;53.566;9.910;2022-10-17T15:41:26;16.80;99.90
38902;DHT22;24661;53.566;9.910;2022-10-17T15:43:52;16.70;99.90
38902;DHT22;24661;53.566;9.910;2022-10-17T15:46:22;16.70;99.90
38902;DHT22;24661;53.566;9.910;2022-10-17T15:48:50;16.70;99.90
38902;DHT22;24661;53.566;9.910;2022-10-17T15:51:16;16.60;99.90
38902;DHT22;24661;53.566;9.910;2022-10-17T15:53:42;16.60;99.90
38902;DHT22;24661;53.566;9.910;2022-10-17T15:56:23;16.60;99.90
38902;DHT22;24661;53.566;9.910;2022-10-17T15:58:50;16.50;99.90
38902;DHT22;24661;53.566;9.910;2022-10-17T16:01:22;16.60;99.90
38902;DHT22;24661;53.566;9.910;2022-10-17T16:03:49;16.50;99.90
38902;DHT22;24661;53.566;9.910;2022-10-17T16:06:19;16.50;99.90
38902;DHT22;24661;53.566;9.910;2022-10-17T16:08:46;16.50;99.90
38902;DHT22;24661;53.566;9.910;2022-10-17T16:11:40;15.40;99.90
38902;DHT22;24661;53.566;9.910;2022-10-17T16:14:16;16.50;99.90
38902;DHT22;24661;53.566;9.910;2022-10-17T16:16:42;16.50;99.90
38902;DHT22;24661;53.566;9.910;2022-10-17T16:19:09;16.50;99.90
38902;DHT22;24661;53.566;9.910;2022-10-17T16:21:37;16.40;99.90
38902;DHT22;24661;53.566;9.910;2022-10-17T16:24:03;16.40;99.90
38902;DHT22;24661;53.566;9.910;2022-10-17T16:26:30;16.40;99.90
38902;DHT22;24661;53.566;9.910;2022-10-17T16:28:56;16.40;99.90
38902;DHT22;24661;53.566;9.910;2022-10-17T16:31:31;16.50;99.90
38902;DHT22;24661;53.566;9.910;2022-10-17T16:33:59;16.50;99.90
38902;DHT22;24661;53.566;9.910;2022-10-17T16:36:25;16.50;99.90
38902;DHT22;24661;53.566;9.910;2022-10-17T16:38:51;16.40;99.90
38902;DHT22;24661;53.566;9.910;2022-10-17T16:43:51;16.30;99.90
38902;DHT22;24661;53.566;9.910;2022-10-17T16:46:18;16.30;99.90
38902;DHT22;24661;53.566;9.910;2022-10-17T16:48:44;16.40;99.90
38902;DHT22;24661;53.566;9.910;2022-10-17T16:51:11;16.30;99.90
38902;DHT22;24661;53.566;9.910;2022-10-17T16:53:37;16.40;99.90
38902;DHT22;24661;53.566;9.910;2022-10-17T16:56:14;16.40;99.90
38902;DHT22;24661;53.566;9.910;2022-10-17T16:58:41;16.40;99.90
38902;DHT22;24661;53.566;9.910;2022-10-17T17:01:12;16.30;99.90
38902;DHT22;24661;53.566;9.910;2022-10-17T17:03:40;16.40;99.90
38902;DHT22;24661;53.566;9.910;2022-10-17T17:06:08;16.40;99.90
38902;DHT22;24661;53.566;9.910;2022-10-17T17:08:34;16.30;99.90
38902;DHT22;24661;53.566;9.910;2022-10-17T17:11:01;16.30;99.90
38902;DHT22;24661;53.566;9.910;2022-10-17T17:13:27;16.30;99.90
38902;DHT22;24661;53.566;9.910;2022-10-17T17:16:11;16.30;99.90
38902;DHT22;24661;53.566;9.910;2022-10-17T17:18:38;16.20;99.90
38902;DHT22;24661;53.566;9.910;2022-10-17T17:21:05;16.40;99.90
38902;DHT22;24661;53.566;9.910;2022-10-17T17:23:33;16.30;99.90
38902;DHT22;24661;53.566;9.910;2022-10-17T17:26:08;16.30;99.90
38902;DHT22;24661;53.566;9.910;2022-10-17T17:28:34;16.30;99.90
38902;DHT22;24661;53.566;9.910;2022-10-17T17:31:00;16.30;99.90
38902;DHT22;24661;53.566;9.910;2022-10-17T17:33:26;16.20;99.90
38902;DHT22;24661;53.566;9.910;2022-10-17T17:35:59;16.20;99.90
38902;DHT22;24661;53.566;9.910;2022-10-17T17:38:28;16.20;99.90